Time;durP1;ratioP1;P1;durP2;ratioP2;P2;SDS_P1;SDS_P2;PMS_P1;PMS_P2;Temp;Humidity;BMP_temperature;BMP_pressure;BME280_temperature;BME280_humidity;BME280_pressure;Samples;Min_cycle;Max_cycle;Signal;HPM_P1;HPM_P2
2021/01/23 00:02:23;;;;;;;5.03;4.53;;;2.90;99.90;;;;;;4985575;28;20188;-91
2021/01/23 00:04:48;;;;;;;2.43;2.33;;;2.80;99.90;;;;;;4950050;28;20215;-93
2021/01/23 00:07:14;;;;;;;3.93;3.67;;;2.80;99.90;;;;;;4965690;28;20226;-93
2021/01/23 00:09:40;;;;;;;8.87;3.43;;;2.80;99.90;;;;;;4965333;28;21055;-93
2021/01/23 00:12:06;;;;;;;2.67;2.07;;;2.80;99.90;;;;;;4964881;28;20641;-92
2021/01/23 00:14:32;;;;;;;3.53;3.17;;;2.80;99.90;;;;;;4967523;28;20222;-92
2021/01/23 00:16:59;;;;;;;2.50;2.37;;;2.80;99.90;;;;;;4980761;28;20255;-92
2021/01/23 00:19:24;;;;;;;3.77;3.20;;;2.80;99.90;;;;;;4982115;28;20227;-92
2021/01/23 00:21:51;;;;;;;8.07;4.40;;;2.80;99.90;;;;;;4948612;28;20954;-92
2021/01/23 00:24:17;;;;;;;3.30;2.90;;;2.70;99.90;;;;;;4965126;28;20228;-92
2021/01/23 00:26:44;;;;;;;6.67;6.03;;;2.80;99.90;;;;;;4982206;28;20251;-93
2021/01/23 00:29:12;;;;;;;5.80;3.53;;;2.70;99.90;;;;;;4965076;28;20636;-94
2021/01/23 00:31:39;;;;;;;11.27;3.93;;;2.70;99.90;;;;;;4949397;28;20211;-93
2021/01/23 00:34:04;;;;;;;3.73;3.43;;;2.70;99.90;;;;;;4982256;28;20304;-92
2021/01/23 00:36:30;;;;;;;2.93;2.60;;;2.60;99.90;;;;;;4981486;28;21148;-93
2021/01/23 00:38:56;;;;;;;2.83;2.63;;;2.60;99.90;;;;;;4963700;28;20799;-92
2021/01/23 00:41:22;;;;;;;5.03;3.10;;;2.60;99.90;;;;;;4966575;28;20203;-92
2021/01/23 00:43:48;;;;;;;8.40;3.73;;;2.60;99.90;;;;;;4964825;28;20298;-92
2021/01/23 00:46:13;;;;;;;4.63;2.97;;;2.60;99.90;;;;;;4948759;28;20746;-92
2021/01/23 00:48:39;;;;;;;4.30;2.67;;;2.50;99.90;;;;;;4965022;28;20246;-92
2021/01/23 00:51:05;;;;;;;5.47;3.63;;;2.50;99.90;;;;;;4948981;28;20184;-92
2021/01/23 00:53:31;;;;;;;3.20;2.67;;;2.40;99.90;;;;;;4948976;28;20295;-91
2021/01/23 00:55:56;;;;;;;3.87;3.60;;;2.40;99.90;;;;;;4943087;28;20280;-94
2021/01/23 00:58:22;;;;;;;2.90;2.43;;;2.40;99.90;;;;;;4926029;29;20690;-92
2021/01/23 01:00:48;;;;;;;2.37;2.17;;;2.30;99.90;;;;;;4926276;29;20219;-92
2021/01/23 01:03:14;;;;;;;3.53;3.33;;;2.30;99.90;;;;;;4910689;28;20221;-92
2021/01/23 01:05:39;;;;;;;12.10;2.67;;;2.20;99.90;;;;;;4927760;29;20224;-90
2021/01/23 01:08:05;;;;;;;3.07;2.67;;;2.10;99.90;;;;;;4926599;29;21083;-92
2021/01/23 01:10:31;;;;;;;2.83;2.63;;;1.90;99.90;;;;;;4942524;28;20221;-92
2021/01/23 01:12:57;;;;;;;1.73;1.63;;;2.00;99.90;;;;;;4926826;28;20460;-92
2021/01/23 01:15:22;;;;;;;3.07;2.20;;;2.00;99.90;;;;;;4926539;28;21013;-91
2021/01/23 01:17:48;;;;;;;3.77;3.47;;;1.90;99.90;;;;;;4931462;29;20194;-91
2021/01/23 01:20:14;;;;;;;4.90;2.53;;;1.90;99.90;;;;;;4945990;29;20746;-92
2021/01/23 01:22:39;;;;;;;2.13;2.03;;;1.90;99.90;;;;;;4945976;29;20213;-91
2021/01/23 01:25:06;;;;;;;4.17;3.70;;;1.80;99.90;;;;;;4929700;29;20229;-92
2021/01/23 01:27:32;;;;;;;2.87;2.67;;;1.80;99.90;;;;;;4930051;28;20240;-91
2021/01/23 01:29:57;;;;;;;2.40;2.20;;;1.80;99.90;;;;;;4930065;28;20194;-91
2021/01/23 01:32:23;;;;;;;21.40;3.53;;;1.80;99.90;;;;;;4931366;29;20185;-91
2021/01/23 01:34:49;;;;;;;3.97;3.60;;;1.80;99.90;;;;;;4945787;28;20233;-92
2021/01/23 01:37:14;;;;;;;5.33;3.73;;;1.90;99.90;;;;;;4930191;28;20221;-92
2021/01/23 01:39:40;;;;;;;6.87;2.57;;;1.90;99.90;;;;;;4928424;29;20268;-93
2021/01/23 01:42:07;;;;;;;3.87;3.47;;;1.80;99.90;;;;;;4929553;28;20220;-93
2021/01/23 01:44:32;;;;;;;3.83;3.53;;;1.80;99.90;;;;;;4946399;28;20193;-92
2021/01/23 01:47:01;;;;;;;3.17;2.97;;;1.80;99.90;;;;;;4945269;29;20248;-93
2021/01/23 01:49:28;;;;;;;5.07;3.30;;;1.80;99.90;;;;;;4944977;28;20217;-92
2021/01/23 01:51:56;;;;;;;8.23;3.77;;;1.80;99.90;;;;;;4929518;29;20224;-92
2021/01/23 01:54:25;;;;;;;3.90;3.60;;;1.80;99.90;;;;;;4946820;28;20236;-91
2021/01/23 01:56:51;;;;;;;4.13;2.90;;;1.80;99.90;;;;;;4967008;28;20193;-91
2021/01/23 01:59:17;;;;;;;3.50;2.83;;;1.80;99.90;;;;;;4964937;28;20216;-91
2021/01/23 02:01:43;;;;;;;3.60;3.07;;;1.60;99.90;;;;;;4947708;28;21020;-91
2021/01/23 02:04:50;;;;;;;3.40;3.13;;;1.60;99.90;;;;;;4966057;28;20221;-90
2021/01/23 02:07:36;;;;;;;3.60;3.37;;;1.60;99.90;;;;;;4957039;28;20696;-92
2021/01/23 02:10:31;;;;;;;2.63;2.43;;;1.50;99.90;;;;;;4964188;28;20290;-90
2021/01/23 02:13:22;;;;;;;3.33;3.13;;;1.60;99.90;;;;;;4964948;28;20566;-92
2021/01/23 02:16:06;;;;;;;3.47;3.17;;;1.60;99.90;;;;;;4978642;28;20227;-91
2021/01/23 02:18:40;;;;;;;3.50;3.20;;;1.60;99.90;;;;;;4963232;28;20225;-91
2021/01/23 02:21:31;;;;;;;3.20;2.83;;;1.60;99.90;;;;;;4964826;28;20260;-91
2021/01/23 02:24:01;;;;;;;5.80;4.73;;;1.70;99.90;;;;;;4963104;28;20200;-91
2021/01/23 02:26:48;;;;;;;3.33;3.03;;;1.70;99.90;;;;;;4965700;28;20204;-91
2021/01/23 02:29:20;;;;;;;2.90;2.07;;;1.70;99.90;;;;;;4978497;28;20225;-91
2021/01/23 02:31:54;;;;;;;2.70;2.47;;;1.70;99.90;;;;;;4964414;28;20228;-92
2021/01/23 02:34:23;;;;;;;2.20;2.03;;;1.70;99.90;;;;;;4962638;28;20248;-91
2021/01/23 02:36:50;;;;;;;3.97;3.67;;;1.70;99.90;;;;;;4964909;28;20626;-91
2021/01/23 02:39:18;;;;;;;2.60;2.47;;;1.70;99.90;;;;;;4945692;28;20335;-94
2021/01/23 02:41:44;;;;;;;2.90;2.80;;;1.70;99.90;;;;;;4964791;28;20200;-91
2021/01/23 02:44:10;;;;;;;1.93;1.70;;;1.70;99.90;;;;;;4945808;28;20515;-92
2021/01/23 02:46:36;;;;;;;3.77;3.43;;;1.70;99.90;;;;;;4946374;28;20244;-92
2021/01/23 02:49:03;;;;;;;4.03;3.70;;;1.70;99.90;;;;;;4963144;28;20221;-92
2021/01/23 02:51:59;;;;;;;2.30;1.83;;;1.60;99.90;;;;;;4947947;28;20270;-92
2021/01/23 02:54:49;;;;;;;2.77;2.53;;;1.50;99.90;;;;;;4979456;28;20263;-91
2021/01/23 02:57:18;;;;;;;1.93;1.77;;;1.50;99.90;;;;;;4963932;28;20299;-92
2021/01/23 02:59:46;;;;;;;5.40;2.53;;;1.40;99.90;;;;;;4965455;28;20212;-92
2021/01/23 03:02:14;;;;;;;4.23;3.77;;;1.40;99.90;;;;;;4964049;28;20221;-92
2021/01/23 03:04:41;;;;;;;3.13;2.93;;;1.40;99.90;;;;;;4947471;28;20306;-92
2021/01/23 03:07:07;;;;;;;2.07;1.93;;;1.30;99.90;;;;;;4963452;28;20216;-92
2021/01/23 03:09:34;;;;;;;1.67;1.57;;;1.30;99.90;;;;;;4963393;28;20282;-92
2021/01/23 03:12:00;;;;;;;6.70;2.30;;;1.30;99.90;;;;;;4947209;28;20200;-92
2021/01/23 03:14:26;;;;;;;2.90;2.30;;;1.30;99.90;;;;;;4947872;28;20247;-91
2021/01/23 03:16:54;;;;;;;4.30;2.63;;;1.30;99.90;;;;;;4963071;28;20224;-91
2021/01/23 03:19:20;;;;;;;3.03;2.30;;;1.30;99.90;;;;;;4946871;28;20741;-93
2021/01/23 03:21:47;;;;;;;2.60;2.50;;;1.40;99.90;;;;;;4963095;28;20712;-92
2021/01/23 03:24:14;;;;;;;2.67;2.20;;;1.20;99.90;;;;;;4963310;28;20232;-92
2021/01/23 03:26:40;;;;;;;2.70;2.57;;;1.20;99.90;;;;;;4964734;28;20232;-92
2021/01/23 03:29:06;;;;;;;5.93;3.10;;;1.30;99.90;;;;;;4964965;28;20229;-92
2021/01/23 03:31:33;;;;;;;2.93;2.73;;;1.30;99.90;;;;;;4962514;28;21162;-92
2021/01/23 03:33:59;;;;;;;3.13;2.90;;;1.30;99.90;;;;;;4962885;28;20311;-92
2021/01/23 03:36:25;;;;;;;3.23;2.70;;;1.40;99.90;;;;;;4964121;28;20224;-91
2021/01/23 03:38:51;;;;;;;4.87;3.73;;;1.40;99.90;;;;;;4961946;28;20252;-92
2021/01/23 03:41:18;;;;;;;1.73;1.43;;;1.40;99.90;;;;;;4962520;28;20221;-92
2021/01/23 03:43:44;;;;;;;3.17;2.87;;;1.40;99.90;;;;;;4945555;28;20212;-92
2021/01/23 03:46:10;;;;;;;1.43;1.43;;;1.40;99.90;;;;;;4963753;28;20228;-91
2021/01/23 03:48:36;;;;;;;2.63;2.53;;;1.40;99.90;;;;;;4946504;28;20224;-92
2021/01/23 03:51:03;;;;;;;3.23;2.93;;;1.40;99.90;;;;;;4946661;28;20193;-92
2021/01/23 03:53:28;;;;;;;5.47;4.57;;;1.40;99.90;;;;;;4959272;28;20243;-92
2021/01/23 03:55:54;;;;;;;4.30;3.93;;;1.40;99.90;;;;;;4936500;28;20221;-92
2021/01/23 03:58:20;;;;;;;2.13;2.03;;;1.40;99.90;;;;;;4935056;28;20272;-91
2021/01/23 04:00:46;;;;;;;10.27;3.03;;;1.40;99.90;;;;;;4951846;28;20864;-90
2021/01/23 04:03:13;;;;;;;2.97;2.80;;;1.40;99.90;;;;;;4952767;28;20220;-91
2021/01/23 04:05:38;;;;;;;3.40;3.10;;;1.40;99.90;;;;;;4912817;28;20241;-91
2021/01/23 04:08:05;;;;;;;2.50;2.27;;;1.40;99.90;;;;;;4949670;28;20341;-92
2021/01/23 04:10:31;;;;;;;2.17;2.07;;;1.50;99.90;;;;;;4935710;28;20233;-90
2021/01/23 04:12:56;;;;;;;1.57;1.43;;;1.50;99.90;;;;;;4922655;28;20287;-92
2021/01/23 04:15:23;;;;;;;6.20;4.63;;;1.50;99.90;;;;;;4966676;28;20252;-90
2021/01/23 04:17:49;;;;;;;2.97;2.63;;;1.50;99.90;;;;;;4945675;28;20182;-91
2021/01/23 04:20:15;;;;;;;2.33;2.13;;;1.50;99.90;;;;;;4912282;28;20220;-92
2021/01/23 04:22:41;;;;;;;2.77;2.37;;;1.60;99.90;;;;;;4951035;28;20220;-92
2021/01/23 04:25:07;;;;;;;3.23;3.03;;;1.60;99.90;;;;;;4918832;28;20240;-93
2021/01/23 04:27:33;;;;;;;3.40;2.93;;;1.70;99.90;;;;;;4952283;28;20334;-91
2021/01/23 04:30:00;;;;;;;2.07;1.83;;;1.70;99.90;;;;;;4949584;28;20185;-91
2021/01/23 04:32:26;;;;;;;1.40;1.30;;;1.70;99.90;;;;;;4951820;28;20212;-92
2021/01/23 04:34:51;;;;;;;5.90;3.53;;;1.80;99.90;;;;;;4928617;28;20307;-90
2021/01/23 04:37:17;;;;;;;1.87;1.77;;;1.70;99.90;;;;;;4950707;28;20225;-91
2021/01/23 04:39:43;;;;;;;3.30;2.87;;;1.80;99.90;;;;;;4942326;28;21144;-91
2021/01/23 04:42:10;;;;;;;2.37;0.87;;;1.80;99.90;;;;;;4948300;28;21227;-90
2021/01/23 04:44:36;;;;;;;0.80;0.80;;;1.80;99.90;;;;;;4949939;28;20236;-90
2021/01/23 04:47:03;;;;;;;4.57;2.13;;;1.80;99.90;;;;;;4946395;28;20244;-92
2021/01/23 04:49:33;;;;;;;8.83;2.53;;;1.80;99.90;;;;;;4932638;28;20212;-91
2021/01/23 04:52:03;;;;;;;2.60;2.50;;;1.90;99.90;;;;;;4950077;28;20221;-91
2021/01/23 04:54:33;;;;;;;1.40;1.37;;;1.90;99.90;;;;;;4957297;28;20244;-91
2021/01/23 04:56:59;;;;;;;1.30;1.20;;;1.90;99.90;;;;;;4927383;28;20197;-92
2021/01/23 04:59:25;;;;;;;2.60;2.40;;;2.00;99.90;;;;;;4960435;28;20268;-91
2021/01/23 05:02:20;;;;;;;3.20;3.00;;;2.00;99.90;;;;;;4927466;29;20661;-93
2021/01/23 05:04:56;;;;;;;2.30;1.93;;;2.00;99.90;;;;;;4941487;28;20248;-91
2021/01/23 05:07:37;;;;;;;4.93;4.43;;;2.10;99.90;;;;;;4942576;28;20255;-92
2021/01/23 05:10:18;;;;;;;3.70;3.27;;;2.10;99.90;;;;;;4942120;28;20224;-90
2021/01/23 05:12:45;;;;;;;1.63;1.53;;;2.20;99.90;;;;;;4942622;28;20213;-90
2021/01/23 05:15:20;;;;;;;4.23;3.93;;;2.30;99.90;;;;;;4918716;28;21028;-89
2021/01/23 05:17:58;;;;;;;3.87;3.57;;;2.30;99.90;;;;;;4944874;28;20176;-91
2021/01/23 05:20:33;;;;;;;4.67;3.60;;;2.30;99.90;;;;;;4942656;28;20236;-92
2021/01/23 05:23:12;;;;;;;1.70;1.60;;;2.30;99.90;;;;;;4943965;28;20252;-91
2021/01/23 05:25:39;;;;;;;1.93;1.83;;;2.30;99.90;;;;;;4941897;28;20373;-91
2021/01/23 05:28:06;;;;;;;1.50;1.40;;;2.40;99.90;;;;;;4943048;28;20229;-90
2021/01/23 05:30:41;;;;;;;4.17;2.80;;;2.40;99.90;;;;;;4926556;29;20228;-92
2021/01/23 05:33:12;;;;;;;3.83;3.53;;;2.40;99.90;;;;;;4941714;28;20240;-91
2021/01/23 05:35:38;;;;;;;3.40;3.13;;;2.50;99.90;;;;;;4943372;28;20278;-91
2021/01/23 05:38:25;;;;;;;4.77;2.17;;;2.50;99.90;;;;;;4943040;28;20614;-91
2021/01/23 05:40:55;;;;;;;5.13;3.23;;;2.50;99.90;;;;;;4926368;29;20233;-92
2021/01/23 05:43:48;;;;;;;3.00;2.67;;;2.60;99.90;;;;;;4942716;28;20236;-92
2021/01/23 05:46:15;;;;;;;3.43;3.13;;;2.60;99.90;;;;;;4942437;28;20320;-91
2021/01/23 05:48:45;;;;;;;5.87;4.97;;;2.60;99.90;;;;;;4943057;28;20225;-91
2021/01/23 05:51:11;;;;;;;6.00;4.33;;;2.70;99.90;;;;;;4925747;28;20205;-91
2021/01/23 05:53:37;;;;;;;14.53;4.73;;;2.70;99.90;;;;;;4939221;28;20252;-91
2021/01/23 05:56:04;;;;;;;3.10;2.80;;;2.70;99.90;;;;;;4946315;28;20220;-91
2021/01/23 05:58:31;;;;;;;9.83;4.70;;;2.70;99.90;;;;;;4960510;28;20239;-92
2021/01/23 06:00:59;;;;;;;3.93;3.60;;;2.70;99.90;;;;;;4961503;28;20227;-92
2021/01/23 06:03:37;;;;;;;3.27;2.77;;;2.70;99.90;;;;;;4964089;28;21039;-93
2021/01/23 06:06:03;;;;;;;3.97;3.67;;;2.70;99.90;;;;;;4964606;28;20196;-92
2021/01/23 06:08:39;;;;;;;4.50;4.10;;;2.80;99.90;;;;;;4965062;28;20704;-91
2021/01/23 06:11:25;;;;;;;2.80;2.10;;;2.80;99.90;;;;;;4947759;28;20327;-92
2021/01/23 06:13:56;;;;;;;8.43;3.50;;;2.80;99.90;;;;;;4965556;28;20380;-92
2021/01/23 06:16:34;;;;;;;4.27;3.90;;;2.90;99.90;;;;;;4965174;28;20225;-93
2021/01/23 06:19:20;;;;;;;3.47;3.03;;;2.90;99.90;;;;;;4964595;28;21223;-91
2021/01/23 06:21:46;;;;;;;6.07;3.30;;;2.90;99.90;;;;;;4963721;28;20217;-91
2021/01/23 06:24:13;;;;;;;6.10;5.13;;;2.90;99.90;;;;;;4964770;28;20228;-92
2021/01/23 06:26:54;;;;;;;5.73;5.13;;;2.90;99.90;;;;;;4949519;28;20291;-92
2021/01/23 06:29:42;;;;;;;7.50;5.67;;;3.00;99.90;;;;;;4963222;28;21404;-92
2021/01/23 06:32:11;;;;;;;2.83;2.63;;;3.00;99.90;;;;;;4963352;28;20220;-91
2021/01/23 06:34:44;;;;;;;8.70;6.00;;;3.10;99.90;;;;;;4979701;28;20216;-91
2021/01/23 06:37:20;;;;;;;4.60;4.27;;;3.10;99.90;;;;;;4965172;28;20352;-90
2021/01/23 06:40:07;;;;;;;4.13;3.17;;;3.10;99.90;;;;;;4963275;28;20235;-90
2021/01/23 06:42:47;;;;;;;8.90;5.23;;;3.10;99.90;;;;;;4965080;28;20244;-93
2021/01/23 06:45:20;;;;;;;4.43;4.03;;;3.10;99.90;;;;;;4963961;28;20232;-93
2021/01/23 06:47:48;;;;;;;9.77;5.00;;;3.20;99.90;;;;;;4963586;28;20185;-92
2021/01/23 06:50:38;;;;;;;3.90;3.57;;;3.20;99.90;;;;;;4964486;28;20220;-92
2021/01/23 06:53:07;;;;;;;5.43;3.90;;;3.20;99.90;;;;;;4962727;28;20672;-92
2021/01/23 06:55:43;;;;;;;3.10;1.93;;;3.20;99.90;;;;;;4961983;28;20776;-91
2021/01/23 06:58:23;;;;;;;7.27;6.57;;;3.20;99.90;;;;;;4978941;28;21287;-93
2021/01/23 07:00:55;;;;;;;8.10;5.37;;;3.30;99.90;;;;;;4962501;28;20263;-91
2021/01/23 07:03:22;;;;;;;4.63;3.03;;;3.30;99.90;;;;;;4964843;28;20230;-92
2021/01/23 07:05:53;;;;;;;12.43;3.17;;;3.30;99.90;;;;;;4965934;28;20220;-91
2021/01/23 07:08:47;;;;;;;4.80;3.97;;;3.40;99.90;;;;;;4967280;28;20386;-91
2021/01/23 07:11:21;;;;;;;6.20;5.23;;;3.40;99.90;;;;;;4963897;28;20217;-94
2021/01/23 07:14:04;;;;;;;6.90;5.47;;;3.40;99.90;;;;;;4981443;28;20291;-90
2021/01/23 07:16:32;;;;;;;6.50;5.47;;;3.40;99.90;;;;;;4966053;28;20596;-93
2021/01/23 07:19:00;;;;;;;9.83;4.80;;;3.50;99.90;;;;;;4962975;28;20220;-92
2021/01/23 07:21:26;;;;;;;7.10;5.33;;;3.50;99.90;;;;;;4946230;28;20240;-93
2021/01/23 07:23:54;;;;;;;4.40;2.93;;;3.50;99.90;;;;;;4963201;28;20192;-92
2021/01/23 07:26:20;;;;;;;5.07;4.67;;;3.50;99.90;;;;;;4948679;28;20244;-91
2021/01/23 07:28:53;;;;;;;6.47;4.23;;;3.50;99.90;;;;;;4947429;28;20224;-95
2021/01/23 07:31:22;;;;;;;3.10;2.80;;;3.60;99.90;;;;;;4949570;28;20219;-93
2021/01/23 07:33:48;;;;;;;6.07;4.63;;;3.60;99.90;;;;;;4969001;28;20224;-90
2021/01/23 07:36:31;;;;;;;7.57;6.03;;;3.60;99.90;;;;;;4968447;28;20227;-91
2021/01/23 07:38:58;;;;;;;5.03;4.63;;;3.60;99.90;;;;;;4979400;28;20276;-90
2021/01/23 07:41:28;;;;;;;4.97;4.23;;;3.70;99.90;;;;;;4964902;28;20181;-93
2021/01/23 07:43:54;;;;;;;3.83;3.20;;;3.70;99.90;;;;;;4981860;28;20220;-91
2021/01/23 07:46:20;;;;;;;5.57;4.13;;;3.70;99.90;;;;;;4969006;28;20250;-93
2021/01/23 07:48:45;;;;;;;6.10;4.07;;;3.80;99.90;;;;;;4965860;28;20792;-90
2021/01/23 07:51:28;;;;;;;7.33;4.67;;;3.80;99.90;;;;;;4984778;28;24112;-90
2021/01/23 07:54:26;;;;;;;6.50;3.37;;;3.90;99.90;;;;;;4964415;28;20228;-96
2021/01/23 07:56:57;;;;;;;3.40;3.20;;;3.90;99.90;;;;;;4922681;28;20211;-87
2021/01/23 07:59:44;;;;;;;4.73;4.20;;;3.90;99.90;;;;;;4963711;28;20233;-94
2021/01/23 08:02:10;;;;;;;6.63;4.70;;;4.00;99.90;;;;;;4961475;28;20231;-94
2021/01/23 08:04:38;;;;;;;6.30;4.03;;;4.00;99.90;;;;;;4963510;28;20225;-95
2021/01/23 08:07:16;;;;;;;7.57;6.23;;;4.00;99.90;;;;;;4965678;28;20236;-94
2021/01/23 08:09:42;;;;;;;5.43;4.93;;;4.00;99.90;;;;;;4986024;28;20224;-95
2021/01/23 08:12:16;;;;;;;13.57;6.53;;;4.10;99.90;;;;;;4948738;28;20185;-96
2021/01/23 08:14:52;;;;;;;9.63;5.23;;;4.10;99.90;;;;;;4967987;28;20271;-96
2021/01/23 08:17:18;;;;;;;7.53;4.20;;;4.10;99.90;;;;;;4951446;28;20216;-91
2021/01/23 08:19:52;;;;;;;5.03;4.27;;;4.10;99.90;;;;;;4964416;28;20216;-91
2021/01/23 08:22:18;;;;;;;5.17;4.63;;;4.10;99.90;;;;;;4964017;28;20252;-93
2021/01/23 08:24:44;;;;;;;8.37;6.23;;;4.10;99.90;;;;;;4961244;28;20327;-94
2021/01/23 08:27:20;;;;;;;6.63;4.47;;;4.10;99.90;;;;;;4923313;28;20303;-94
2021/01/23 08:29:47;;;;;;;5.70;4.10;;;4.10;99.90;;;;;;4963873;28;20185;-93
2021/01/23 08:32:14;;;;;;;7.93;5.17;;;4.10;99.90;;;;;;4946102;28;20221;-96
2021/01/23 08:34:40;;;;;;;6.47;4.53;;;4.10;99.90;;;;;;4949762;28;20220;-94
2021/01/23 08:37:06;;;;;;;9.17;4.87;;;4.10;99.90;;;;;;4967090;28;20220;-94
2021/01/23 08:39:48;;;;;;;4.77;4.37;;;4.20;99.90;;;;;;4965445;28;20221;-95
2021/01/23 08:42:15;;;;;;;3.90;3.27;;;4.20;99.90;;;;;;4967372;28;20274;-96
2021/01/23 08:44:41;;;;;;;4.20;2.90;;;4.20;99.90;;;;;;4948449;28;20291;-96
2021/01/23 08:47:07;;;;;;;3.47;3.17;;;4.20;99.90;;;;;;4967737;28;20335;-94
2021/01/23 08:49:33;;;;;;;4.93;3.27;;;4.20;99.90;;;;;;4948776;28;20224;-96
2021/01/23 08:51:59;;;;;;;3.87;3.37;;;4.20;99.90;;;;;;4929446;28;20216;-96
2021/01/23 08:54:26;;;;;;;2.83;2.63;;;4.30;99.90;;;;;;4969792;28;20686;-96
2021/01/23 08:56:56;;;;;;;5.13;4.07;;;4.30;99.90;;;;;;4969645;28;20215;-93
2021/01/23 08:59:22;;;;;;;5.77;3.90;;;4.30;99.90;;;;;;4967865;28;20662;-96
2021/01/23 09:01:51;;;;;;;4.53;3.13;;;4.30;99.90;;;;;;4941289;28;20251;-95
2021/01/23 09:04:21;;;;;;;3.97;3.60;;;4.30;99.90;;;;;;4939768;28;20280;-96
2021/01/23 09:06:52;;;;;;;5.37;4.77;;;4.40;99.90;;;;;;4946633;28;20302;-95
2021/01/23 09:09:23;;;;;;;4.23;3.83;;;4.40;99.90;;;;;;4956582;28;20220;-96
2021/01/23 09:11:59;;;;;;;6.23;5.17;;;4.40;99.90;;;;;;4969212;28;20187;-96
2021/01/23 09:14:25;;;;;;;18.03;4.20;;;4.40;99.90;;;;;;4971252;28;20643;-96
2021/01/23 09:16:56;;;;;;;3.47;3.27;;;4.50;99.90;;;;;;4960474;28;20236;-96
2021/01/23 09:19:25;;;;;;;3.70;3.33;;;4.50;99.90;;;;;;4945919;28;20223;-92
2021/01/23 09:21:51;;;;;;;3.43;3.23;;;4.50;99.90;;;;;;4957491;28;20249;-94
2021/01/23 09:24:18;;;;;;;5.67;3.57;;;4.60;99.90;;;;;;4962702;28;20320;-94
2021/01/23 09:26:44;;;;;;;4.27;3.90;;;4.60;99.90;;;;;;4964658;28;20303;-92
2021/01/23 09:29:10;;;;;;;3.07;2.67;;;4.50;99.90;;;;;;4946394;28;20231;-94
2021/01/23 09:31:36;;;;;;;5.03;4.53;;;4.50;99.90;;;;;;4961900;28;20588;-93
2021/01/23 09:34:01;;;;;;;3.47;3.17;;;4.50;99.90;;;;;;4977686;28;20220;-92
2021/01/23 09:36:28;;;;;;;12.63;4.47;;;4.50;99.90;;;;;;4946002;28;20224;-95
2021/01/23 09:38:55;;;;;;;13.13;4.20;;;4.50;99.90;;;;;;4962726;28;20185;-93
2021/01/23 09:41:21;;;;;;;5.20;3.20;;;4.60;99.90;;;;;;4968352;28;20199;-95
2021/01/23 09:43:47;;;;;;;2.67;2.47;;;4.60;99.90;;;;;;4967322;28;20217;-92
2021/01/23 09:46:12;;;;;;;5.87;4.17;;;4.70;99.90;;;;;;4963995;28;20268;-96
2021/01/23 09:48:38;;;;;;;2.90;1.83;;;4.80;99.90;;;;;;4963181;28;20217;-92
2021/01/23 09:51:05;;;;;;;2.87;2.67;;;4.80;99.90;;;;;;4963692;28;20187;-92
2021/01/23 09:53:31;;;;;;;10.07;3.93;;;4.80;99.90;;;;;;4965319;28;20232;-93
2021/01/23 09:55:56;;;;;;;2.67;2.53;;;5.00;99.90;;;;;;4963643;28;20235;-93
2021/01/23 09:58:22;;;;;;;6.87;3.27;;;5.10;99.90;;;;;;4947992;28;20720;-92
2021/01/23 10:00:49;;;;;;;2.63;2.47;;;5.10;99.90;;;;;;4948024;28;20220;-92
2021/01/23 10:03:15;;;;;;;3.47;3.17;;;5.00;99.90;;;;;;4933199;28;20227;-90
2021/01/23 10:05:41;;;;;;;3.07;2.70;;;5.10;99.90;;;;;;4964763;28;20284;-91
2021/01/23 10:08:07;;;;;;;1.00;1.00;;;5.10;99.90;;;;;;4964888;28;20228;-95
2021/01/23 10:10:33;;;;;;;1.87;1.77;;;5.10;99.90;;;;;;4963374;28;20224;-94
2021/01/23 10:12:59;;;;;;;1.63;1.30;;;5.00;99.90;;;;;;4946736;28;20335;-93
2021/01/23 10:15:25;;;;;;;2.33;1.40;;;4.90;99.90;;;;;;4964240;28;20347;-94
2021/01/23 10:17:50;;;;;;;1.60;1.50;;;4.80;99.90;;;;;;4969516;28;20280;-93
2021/01/23 10:20:16;;;;;;;2.67;2.43;;;4.80;99.90;;;;;;4950989;28;22388;-94
2021/01/23 10:22:42;;;;;;;4.20;2.27;;;4.80;99.90;;;;;;4961932;28;20690;-91
2021/01/23 10:25:08;;;;;;;2.67;1.80;;;4.90;99.90;;;;;;4978983;28;20334;-95
2021/01/23 10:27:44;;;;;;;1.87;1.73;;;4.80;99.90;;;;;;4962905;28;20229;-95
2021/01/23 10:30:13;;;;;;;2.90;2.60;;;4.90;99.90;;;;;;4964324;28;20227;-94
2021/01/23 10:32:39;;;;;;;1.80;1.67;;;4.90;99.90;;;;;;4950058;28;20197;-94
2021/01/23 10:35:05;;;;;;;1.37;1.17;;;4.90;99.90;;;;;;4948980;28;20279;-95
2021/01/23 10:37:31;;;;;;;1.43;1.33;;;5.00;99.90;;;;;;4966060;28;20244;-94
2021/01/23 10:39:57;;;;;;;4.47;3.07;;;5.00;99.90;;;;;;4978060;28;20220;-93
2021/01/23 10:42:23;;;;;;;2.33;1.53;;;5.10;99.90;;;;;;4948079;28;20216;-93
2021/01/23 10:44:48;;;;;;;1.30;0.70;;;5.20;99.90;;;;;;4966096;28;20199;-94
2021/01/23 10:47:14;;;;;;;1.13;1.13;;;5.30;99.90;;;;;;4964677;28;20236;-96
2021/01/23 10:49:40;;;;;;;1.33;1.23;;;5.30;99.90;;;;;;4961674;28;20223;-95
2021/01/23 10:52:06;;;;;;;2.10;2.00;;;5.40;99.90;;;;;;4963990;28;20551;-94
2021/01/23 10:54:32;;;;;;;1.30;0.97;;;5.40;99.90;;;;;;4964059;28;20320;-95
2021/01/23 10:56:58;;;;;;;0.90;0.80;;;5.40;99.90;;;;;;4962770;28;20189;-92
2021/01/23 10:59:24;;;;;;;0.80;0.77;;;5.60;99.90;;;;;;4964944;28;20209;-93
2021/01/23 11:01:49;;;;;;;2.20;1.30;;;5.70;99.90;;;;;;4978127;28;20792;-90
2021/01/23 11:04:15;;;;;;;0.70;0.70;;;5.70;99.90;;;;;;4945562;28;20221;-93
2021/01/23 11:06:42;;;;;;;0.57;0.57;;;5.80;99.90;;;;;;4962041;28;20240;-94
2021/01/23 11:09:08;;;;;;;0.70;0.70;;;5.80;99.90;;;;;;4961705;28;20724;-90
2021/01/23 11:11:34;;;;;;;0.40;0.40;;;5.80;99.90;;;;;;4963584;28;20184;-92
2021/01/23 11:14:00;;;;;;;0.20;0.20;;;5.70;99.90;;;;;;4962673;28;20295;-94
2021/01/23 11:16:26;;;;;;;0.50;0.50;;;5.80;99.90;;;;;;4962232;28;20332;-93
2021/01/23 11:18:53;;;;;;;0.40;0.40;;;5.90;99.90;;;;;;4962095;28;20220;-93
2021/01/23 11:21:18;;;;;;;4.70;0.30;;;5.90;99.90;;;;;;4959169;28;20700;-93
2021/01/23 11:23:44;;;;;;;0.37;0.37;;;5.90;99.90;;;;;;4943002;28;20193;-93
2021/01/23 11:26:10;;;;;;;0.63;0.63;;;6.00;99.90;;;;;;4941963;28;20307;-94
2021/01/23 11:28:36;;;;;;;3.03;0.50;;;6.20;99.90;;;;;;4973436;28;20232;-92
2021/01/23 11:31:02;;;;;;;0.70;0.70;;;6.30;99.90;;;;;;4928055;28;20697;-93
2021/01/23 11:33:28;;;;;;;0.20;0.20;;;6.30;99.90;;;;;;4961037;28;20291;-93
2021/01/23 11:35:54;;;;;;;0.40;0.40;;;6.40;99.90;;;;;;4960897;28;20939;-94
2021/01/23 11:38:20;;;;;;;0.20;0.20;;;6.40;99.90;;;;;;4961233;28;20200;-94
2021/01/23 11:40:46;;;;;;;2.03;0.50;;;6.30;99.90;;;;;;4945288;28;20223;-92
2021/01/23 11:43:12;;;;;;;0.30;0.30;;;6.00;99.90;;;;;;4945922;28;20693;-92
2021/01/23 11:45:38;;;;;;;0.20;0.20;;;5.70;99.90;;;;;;4962722;28;20574;-92
2021/01/23 11:48:05;;;;;;;1.07;1.00;;;5.60;99.90;;;;;;4944242;28;20200;-95
2021/01/23 11:50:30;;;;;;;1.13;1.13;;;5.40;99.90;;;;;;4962215;28;20247;-93
2021/01/23 11:52:56;;;;;;;0.10;0.10;;;5.30;99.90;;;;;;4955372;28;635872;-91
2021/01/23 11:55:22;;;;;;;0.07;0.07;;;5.30;99.90;;;;;;4945802;28;20229;-93
2021/01/23 11:57:48;;;;;;;0.17;0.17;;;5.40;99.90;;;;;;4930329;28;20213;-93
2021/01/23 12:00:14;;;;;;;0.20;0.20;;;5.40;99.90;;;;;;4962654;28;20224;-95
2021/01/23 12:02:40;;;;;;;0.30;0.30;;;5.40;99.90;;;;;;4962097;28;20203;-94
2021/01/23 12:05:06;;;;;;;0.10;0.10;;;5.40;99.90;;;;;;4978235;28;20220;-93
2021/01/23 12:07:32;;;;;;;0.23;0.23;;;5.50;99.90;;;;;;4961864;28;20247;-94
2021/01/23 12:09:58;;;;;;;0.40;0.40;;;5.50;99.90;;;;;;4961767;28;20220;-95
2021/01/23 12:12:24;;;;;;;0.20;0.20;;;5.30;99.90;;;;;;4946323;28;20228;-93
2021/01/23 12:14:50;;;;;;;0.30;0.30;;;5.20;99.90;;;;;;4962652;28;20199;-91
2021/01/23 12:17:16;;;;;;;0.10;0.10;;;5.10;99.90;;;;;;4962213;28;20604;-93
2021/01/23 12:19:42;;;;;;;0.20;0.20;;;5.20;99.90;;;;;;4961916;28;20251;-94
2021/01/23 12:22:11;;;;;;;0.10;0.10;;;5.20;99.90;;;;;;4978357;28;20911;-94
2021/01/23 12:24:37;;;;;;;0.30;0.30;;;5.30;99.90;;;;;;4945208;28;20283;-94
2021/01/23 12:27:03;;;;;;;0.33;0.33;;;5.30;99.90;;;;;;4944607;28;20515;-95
2021/01/23 12:29:30;;;;;;;0.20;0.20;;;5.20;99.90;;;;;;4962311;28;20189;-94
2021/01/23 12:31:57;;;;;;;0.30;0.30;;;5.20;99.90;;;;;;4961055;28;20220;-93
2021/01/23 12:34:24;;;;;;;0.33;0.33;;;5.30;99.90;;;;;;4961029;28;20217;-90
2021/01/23 12:36:50;;;;;;;0.30;0.30;;;5.30;99.90;;;;;;4961429;28;20225;-91
2021/01/23 12:39:16;;;;;;;0.20;0.20;;;5.20;99.90;;;;;;4961325;28;20228;-88
2021/01/23 12:41:42;;;;;;;0.30;0.30;;;5.20;99.90;;;;;;4965503;28;20197;-93
2021/01/23 12:44:08;;;;;;;0.20;0.20;;;5.10;99.90;;;;;;4961639;28;20228;-90
2021/01/23 12:46:33;;;;;;;0.30;0.30;;;5.10;99.90;;;;;;4960016;28;20232;-92
2021/01/23 12:48:59;;;;;;;0.20;0.20;;;5.10;99.90;;;;;;4960921;28;21281;-93
2021/01/23 12:51:25;;;;;;;0.20;0.20;;;5.20;99.90;;;;;;4945389;28;20220;-92
2021/01/23 12:53:51;;;;;;;0.20;0.20;;;5.40;99.90;;;;;;4968019;28;20274;-91
2021/01/23 12:56:17;;;;;;;0.10;0.10;;;5.50;99.90;;;;;;4943010;29;20997;-92
2021/01/23 12:58:44;;;;;;;0.33;0.33;;;5.40;99.90;;;;;;4942602;29;20217;-90
2021/01/23 13:01:10;;;;;;;0.40;0.40;;;5.60;99.90;;;;;;4926232;29;20217;-90
2021/01/23 13:03:36;;;;;;;0.20;0.20;;;5.80;99.90;;;;;;4926103;29;20228;-91
2021/01/23 13:06:02;;;;;;;4.30;0.67;;;5.90;99.90;;;;;;4942987;28;20209;-88
2021/01/23 13:08:27;;;;;;;1.60;1.03;;;6.10;99.90;;;;;;4928245;29;20193;-90